Mount Hood, OR

6:55 AM PST on February 12, 2016 (GMT -0800)
Bosse Acres Ranch | | Change Station
CLOSE
Current Station
Personal Weather Station
Location: Mount Hood, OR
Elevation: 1709 ft
Nearby Weather Stations

Elev 1709 ft 45.51 °N, 121.57 °W | Updated 11 minutes ago

Overcast
Overcast
37.6 °F
Feels Like 38 °F
N
0.0
Wind Variable Wind from SW

Today
High -- | Low -- °F
--% Chance of Precip.
Yesterday
High -- | Low -- °F
Precip. -- in
Pressure 30.24 in
Visibility 1.8 miles
Clouds Overcast 2300 ft
Windchill 38 °F
Dew Point 37 °F
Humidity 99%
Rainfall 0.00 in
Snow Depth Not available.
7:13 AM 5:28 PM
Waxing Crescent, 21% visible
METAR KDLS 121453Z AUTO 14004KT 1 3/4SM BR OVC023 07/06 A3023 RMK AO2 SLP239 T00670056 58000
Pressure 30.24 in
Visibility 1.8 miles
Clouds Overcast 2300 ft
Windchill 38 °F
Dew Point 37 °F
Humidity 99%
Rainfall 0.00 in
Snow Depth Not available.
7:13 AM 5:28 PM
Waxing Crescent, 21% visible
METAR KDLS 121453Z AUTO 14004KT 1 3/4SM BR OVC023 07/06 A3023 RMK AO2 SLP239 T00670056 58000

10-Day Weather Forecast

Almanac

Astronomy

Feb. 12, 2016 Rise Set
Actual Time
Civil Twilight
Nautical Twilight
Astronomical Twilight
Moon
Length of Visible Light
Length of Day
Tomorrow will be .
, % of the Moon is Illuminated

Today's Extremes

State Highs State Lows

Community

WunderPhotos

Upload Photos

1,892,318 photos uploaded!

WunderBlog® & News

Nearby

Air Quality

  Air Quality AQ Index Pollutant
Not available.

Snow Depth

Station Depth Elevation

Earthquake Activity

City Distance Mag. Time & Date
Minimum magnitude displayed is 2.5.

Coastal Water Temperatures

Place Temperature

Stations

Nearby Weather Stations

Station Location Temp. Windchill Dew Point Humidity Wind Precip. Elev Updated Type
                   

Watches & Warnings

There are currently no watches in effect.